Terminal Aerodrome Forecast
Issued by NWS

Home | Current Version | Previous Version | Text Only | Print | Product List | Glossary On
Versions: 1 2 3 4 5 6 7 8 9 10 11 12 13
000
FTUS43 KDLH 280537
TAFBRD
TAF
KBRD 280537Z 2806/2906 07013G20KT P6SM VCSH OVC060
     FM281400 07010G17KT P6SM OVC050
     FM290200 09006KT P6SM BKN090=

USA.gov is the U.S. government's official web portal to all federal, state and local government web resources and services.